This is the latest recevied weather packets stored in our database for station/object DL9GJ-6. If no packets are shown the sender has not sent any weather packets the latest 1 day(s).
| Time | Temp. | Humidity | Pressure | Rain* | Wind** | Luminosity | Snow |
|---|---|---|---|---|---|---|---|
| 1777996222 | 17.22° C | 69% | 1006.1 hPa | 0.25 mm | 0 m/s | 117 W/m² | - |
| 1777995862 | 17.22° C | 71% | 1006.1 hPa | 0.25 mm | 0 m/s | 195 W/m² | - |
| 1777995500 | 17.22° C | 70% | 1006.1 hPa | 0.25 mm | 0.45 m/s, 5° | 205 W/m² | - |
| 1777995141 | 17.22° C | 71% | 1006.1 hPa | 0.25 mm | 0.45 m/s, 346° | 189 W/m² | - |
| 1777994781 | 16.67° C | 73% | 1006.2 hPa | 0.25 mm | 0.45 m/s, 285° | 207 W/m² | - |
| 1777994773 | 16.67° C | 73% | 1006.2 hPa | 0.25 mm | 0.45 m/s, 285° | 207 W/m² | - |
| 1777994420 | 16.67° C | 72% | 1006.1 hPa | 0 mm | 0 m/s | 200 W/m² | - |
| 1777994061 | 16.67° C | 70% | 1006 hPa | 0 mm | 1.79 m/s, 328° | 249 W/m² | - |
| 1777994053 | 16.67° C | 70% | 1006 hPa | 0 mm | 1.79 m/s, 328° | 249 W/m² | - |
| 1777993702 | 16.67° C | 71% | 1006.2 hPa | 0 mm | 2.24 m/s, 333° | 236 W/m² | - |
| 1777993342 | 16.67° C | 73% | 1006.2 hPa | 0 mm | 0.89 m/s, 296° | 235 W/m² | - |
| 1777993328 | 16.67° C | 73% | 1006.2 hPa | 0 mm | 0.89 m/s, 296° | 235 W/m² | - |
| 1777992982 | 16.67° C | 72% | 1006.3 hPa | 0 mm | 0.89 m/s, 11° | 226 W/m² | - |
| 1777992621 | 16.67° C | 73% | 1006.1 hPa | 0 mm | 0.89 m/s, 333° | 209 W/m² | - |
| 1777992261 | 16.67° C | 73% | 1006.2 hPa | 0 mm | 1.79 m/s, 360° | 180 W/m² | - |
| 1777992248 | 16.67° C | 73% | 1006.2 hPa | 0 mm | 1.79 m/s, 360° | 180 W/m² | - |
| 1777991902 | 16.67° C | 74% | 1006.2 hPa | 0 mm | 1.34 m/s, 355° | 194 W/m² | - |
| 1777991542 | 16.67° C | 72% | 1006.3 hPa | 0 mm | 1.79 m/s, 326° | 241 W/m² | - |
| 1777991181 | 16.67° C | 72% | 1006.2 hPa | 0 mm | 1.34 m/s, 278° | 262 W/m² | - |
| 1777990821 | 16.67° C | 72% | 1006.3 hPa | 0 mm | 0.89 m/s, 351° | 213 W/m² | - |
| 1777990462 | 16.67° C | 72% | 1006.4 hPa | 0 mm | 0.89 m/s, 229° | 117 W/m² | - |
| 1777990101 | 16.67° C | 74% | 1006.3 hPa | 0 mm | 0 m/s | 121 W/m² | - |
| 1777989741 | 16.67° C | 73% | 1006.3 hPa | 0 mm | 0.45 m/s, 331° | 135 W/m² | - |
| 1777989728 | 16.67° C | 73% | 1006.3 hPa | 0 mm | 0.45 m/s, 331° | 135 W/m² | - |
| 1777989382 | 16.67° C | 73% | 1006.3 hPa | 0 mm | 0.45 m/s, 271° | 153 W/m² | - |
* Rain latest hour (hover to see other rain measurements)
** Current wind speed in m/s (hover to see current wind gust speed)